Rankings de siempre
Mejores tiempos personales válidos de atleta a través de todos los eventos y temporadas. Cada atleta aparece una vez por división.
Busca por nombre y abre la página donde está clasificado este récord de división.
14,087 atletas clasificados
Los finishers de HYROX ELITE 15 se rastrean por separado — ver la clasificación Elite.
| Pos. | Pos. AG | Atleta | Nacionalidad | Categoría de edad | TiempoMejor tiempo | Diferencia |
|---|---|---|---|---|---|---|
| 6576 | #1351 | Laura EpszteinFRA · W 35-39 · AG #1351 | FRA | W 35-39 | 1:28:30 | +31:04 |
| 6577 | #734 | Lisa EtourneauFRA · W 16-24 · AG #734 | FRA | W 16-24 | 1:28:30 | +31:04 |
| 6578 | #868 | HANFEI LICHN · W 40-44 · AG #868 | CHN | W 40-44 | 1:28:30 | +31:04 |
| 6579 | #1661 | Laura GirardiBRA · W 25-29 · AG #1661 | BRA | W 25-29 | 1:28:30 | +31:04 |
| 6580 | #1662 | Elsemieke MarrenAUS · W 25-29 · AG #1662 | AUS | W 25-29 | 1:28:31 | +31:05 |
| 6581 | #1352 | Greer MccleanCAN · W 35-39 · AG #1352 | CAN | W 35-39 | 1:28:31 | +31:05 |
| 6582 | #433 | Sigrid MartinNED · W 45-49 · AG #433 | NED | W 45-49 | 1:28:31 | +31:05 |
| 6583 | #432 | Rossana CaputoITA · W 45-49 · AG #432 | ITA | W 45-49 | 1:28:31 | +31:05 |
| 6584 | #1900 | Garazi Gomez AmianoESP · W 30-34 · AG #1900 | ESP | W 30-34 | 1:28:31 | +31:05 |
| 6585 | #170 | Helewise ElfferichNED · W 50-54 · AG #170 | NED | W 50-54 | 1:28:31 | +31:05 |
| 6586 | #1353 | Madeleine KrieseGER · W 35-39 · AG #1353 | GER | W 35-39 | 1:28:31 | +31:05 |
| 6587 | #1663 | Andrea Mayor TrujilloESP · W 25-29 · AG #1663 | ESP | W 25-29 | 1:28:31 | +31:05 |
| 6588 | #735 | Alix BLANVILLAINFRA · W 16-24 · AG #735 | FRA | W 16-24 | 1:28:31 | +31:05 |
| 6589 | #1664 | Claudia Pizarro MéndezESP · W 25-29 · AG #1664 | ESP | W 25-29 | 1:28:31 | +31:05 |
| 6590 | #1901 | Danyelle JoyceNZL · W 30-34 · AG #1901 | NZL | W 30-34 | 1:28:32 | +31:06 |
| 6591 | #1665 | Holly OldhamGBR · W 25-29 · AG #1665 | GBR | W 25-29 | 1:28:32 | +31:06 |
| 6592 | #1354 | Keira DuncanGBR · W 35-39 · AG #1354 | GBR | W 35-39 | 1:28:32 | +31:06 |
| 6593 | #869 | Karolina SkupienPOL · W 40-44 · AG #869 | POL | W 40-44 | 1:28:32 | +31:06 |
| 6594 | #1666 | Britney StuckeyUSA · W 25-29 · AG #1666 | USA | W 25-29 | 1:28:32 | +31:06 |
| 6595 | #736 | Becca WarrenGBR · W 16-24 · AG #736 | GBR | W 16-24 | 1:28:32 | +31:06 |
| 6596 | #1902 | Yasmin JohalGBR · W 30-34 · AG #1902 | GBR | W 30-34 | 1:28:32 | +31:06 |
| 6597 | #1903 | Giulia BaronaITA · W 30-34 · AG #1903 | ITA | W 30-34 | 1:28:32 | +31:06 |
| 6598 | #1667 | Angelia JekaUSA · W 25-29 · AG #1667 | USA | W 25-29 | 1:28:32 | +31:06 |
| 6599 | #434 | April DiGiannantonioUSA · W 45-49 · AG #434 | USA | W 45-49 | 1:28:33 | +31:07 |
| 6600 | #435 | Nicky WrayGBR · W 45-49 · AG #435 | GBR | W 45-49 | 1:28:34 | +31:08 |
Página 264 de 564